sensor_id;sensor_type;location;lat;lon;timestamp;P1;durP1;ratioP1;P2;durP2;ratioP2
10523;SDS011;5310;48.638;9.060;2022-08-06T04:57:51;0.30;;;0.30;;
10523;SDS011;5310;48.638;9.060;2022-08-06T05:00:17;0.40;;;0.40;;
10523;SDS011;5310;48.638;9.060;2022-08-06T05:02:43;0.40;;;0.40;;
10523;SDS011;5310;48.638;9.060;2022-08-06T05:05:09;0.40;;;0.40;;
10523;SDS011;5310;48.638;9.060;2022-08-06T05:07:39;0.40;;;0.40;;
10523;SDS011;5310;48.638;9.060;2022-08-06T05:10:06;0.40;;;0.40;;
10523;SDS011;5310;48.638;9.060;2022-08-06T05:12:32;0.40;;;0.40;;
10523;SDS011;5310;48.638;9.060;2022-08-06T05:15:19;0.40;;;0.40;;
10523;SDS011;5310;48.638;9.060;2022-08-06T05:18:08;0.30;;;0.30;;
10523;SDS011;5310;48.638;9.060;2022-08-06T05:20:35;0.40;;;0.40;;
10523;SDS011;5310;48.638;9.060;2022-08-06T05:23:08;0.30;;;0.30;;
10523;SDS011;5310;48.638;9.060;2022-08-06T05:25:35;0.40;;;0.40;;
10523;SDS011;5310;48.638;9.060;2022-08-06T05:28:01;0.40;;;0.40;;
10523;SDS011;5310;48.638;9.060;2022-08-06T05:30:27;0.40;;;0.40;;
10523;SDS011;5310;48.638;9.060;2022-08-06T05:32:53;0.50;;;0.50;;
10523;SDS011;5310;48.638;9.060;2022-08-06T05:35:19;0.40;;;0.40;;
10523;SDS011;5310;48.638;9.060;2022-08-06T05:37:45;0.40;;;0.40;;
10523;SDS011;5310;48.638;9.060;2022-08-06T05:40:11;0.40;;;0.40;;
10523;SDS011;5310;48.638;9.060;2022-08-06T05:42:37;0.43;;;0.43;;
10523;SDS011;5310;48.638;9.060;2022-08-06T05:45:03;0.40;;;0.40;;
10523;SDS011;5310;48.638;9.060;2022-08-06T05:47:32;0.30;;;0.30;;
10523;SDS011;5310;48.638;9.060;2022-08-06T05:50:06;0.40;;;0.40;;
10523;SDS011;5310;48.638;9.060;2022-08-06T05:55:22;0.40;;;0.40;;
10523;SDS011;5310;48.638;9.060;2022-08-06T05:57:59;0.30;;;0.30;;
10523;SDS011;5310;48.638;9.060;2022-08-06T06:00:28;0.40;;;0.40;;
10523;SDS011;5310;48.638;9.060;2022-08-06T06:02:57;0.40;;;0.40;;
10523;SDS011;5310;48.638;9.060;2022-08-06T06:05:23;0.30;;;0.30;;
10523;SDS011;5310;48.638;9.060;2022-08-06T06:07:50;0.40;;;0.40;;
10523;SDS011;5310;48.638;9.060;2022-08-06T06:10:17;0.30;;;0.30;;
10523;SDS011;5310;48.638;9.060;2022-08-06T06:12:45;0.40;;;0.40;;
10523;SDS011;5310;48.638;9.060;2022-08-06T06:15:11;0.40;;;0.40;;
10523;SDS011;5310;48.638;9.060;2022-08-06T06:23:16;0.30;;;0.30;;
10523;SDS011;5310;48.638;9.060;2022-08-06T06:25:46;0.40;;;0.40;;
10523;SDS011;5310;48.638;9.060;2022-08-06T06:33:17;0.30;;;0.30;;
10523;SDS011;5310;48.638;9.060;2022-08-06T06:35:47;0.40;;;0.40;;
10523;SDS011;5310;48.638;9.060;2022-08-06T06:40:51;0.30;;;0.30;;
10523;SDS011;5310;48.638;9.060;2022-08-06T06:43:29;0.40;;;0.40;;
10523;SDS011;5310;48.638;9.060;2022-08-06T06:46:06;0.40;;;0.40;;
10523;SDS011;5310;48.638;9.060;2022-08-06T06:51:13;0.30;;;0.30;;
10523;SDS011;5310;48.638;9.060;2022-08-06T06:53:44;0.30;;;0.30;;
10523;SDS011;5310;48.638;9.060;2022-08-06T06:56:13;0.30;;;0.30;;
10523;SDS011;5310;48.638;9.060;2022-08-06T06:58:41;0.35;;;0.35;;
10523;SDS011;5310;48.638;9.060;2022-08-06T07:01:09;0.40;;;0.40;;
10523;SDS011;5310;48.638;9.060;2022-08-06T07:03:36;0.30;;;0.30;;
10523;SDS011;5310;48.638;9.060;2022-08-06T07:06:04;0.30;;;0.30;;
10523;SDS011;5310;48.638;9.060;2022-08-06T07:08:30;0.43;;;0.43;;
10523;SDS011;5310;48.638;9.060;2022-08-06T07:37:53;0.40;;;0.40;;
10523;SDS011;5310;48.638;9.060;2022-08-06T07:42:45;0.30;;;0.30;;
10523;SDS011;5310;48.638;9.060;2022-08-06T07:45:16;0.30;;;0.30;;
10523;SDS011;5310;48.638;9.060;2022-08-06T07:47:43;0.40;;;0.40;;
10523;SDS011;5310;48.638;9.060;2022-08-06T07:50:10;0.40;;;0.40;;
10523;SDS011;5310;48.638;9.060;2022-08-06T07:55:03;0.35;;;0.35;;
10523;SDS011;5310;48.638;9.060;2022-08-06T07:57:30;0.30;;;0.30;;
10523;SDS011;5310;48.638;9.060;2022-08-06T08:02:23;0.40;;;0.40;;
10523;SDS011;5310;48.638;9.060;2022-08-06T12:18:46;0.28;;;0.28;;
10523;SDS011;5310;48.638;9.060;2022-08-06T12:21:12;0.30;;;0.30;;
10523;SDS011;5310;48.638;9.060;2022-08-06T12:23:38;0.30;;;0.30;;
10523;SDS011;5310;48.638;9.060;2022-08-06T12:26:05;0.30;;;0.30;;
10523;SDS011;5310;48.638;9.060;2022-08-06T13:34:55;0.20;;;0.20;;
10523;SDS011;5310;48.638;9.060;2022-08-06T13:37:41;0.30;;;0.30;;
10523;SDS011;5310;48.638;9.060;2022-08-06T13:40:10;0.20;;;0.20;;
10523;SDS011;5310;48.638;9.060;2022-08-06T13:45:18;0.30;;;0.30;;
10523;SDS011;5310;48.638;9.060;2022-08-06T13:47:44;0.33;;;0.33;;
10523;SDS011;5310;48.638;9.060;2022-08-06T13:50:14;0.30;;;0.30;;
10523;SDS011;5310;48.638;9.060;2022-08-06T13:52:40;0.40;;;0.40;;
10523;SDS011;5310;48.638;9.060;2022-08-06T13:55:06;0.40;;;0.40;;
10523;SDS011;5310;48.638;9.060;2022-08-06T13:57:32;0.30;;;0.30;;
10523;SDS011;5310;48.638;9.060;2022-08-06T14:00:00;0.40;;;0.40;;
10523;SDS011;5310;48.638;9.060;2022-08-06T14:02:26;0.30;;;0.30;;
10523;SDS011;5310;48.638;9.060;2022-08-06T14:04:52;0.22;;;0.22;;
10523;SDS011;5310;48.638;9.060;2022-08-06T14:07:18;0.40;;;0.40;;
10523;SDS011;5310;48.638;9.060;2022-08-06T14:09:44;0.30;;;0.30;;
10523;SDS011;5310;48.638;9.060;2022-08-06T14:12:10;0.30;;;0.30;;
10523;SDS011;5310;48.638;9.060;2022-08-06T14:14:36;0.30;;;0.30;;
10523;SDS011;5310;48.638;9.060;2022-08-06T14:17:05;0.35;;;0.35;;
10523;SDS011;5310;48.638;9.060;2022-08-06T14:19:31;0.30;;;0.30;;
10523;SDS011;5310;48.638;9.060;2022-08-06T14:21:57;0.40;;;0.40;;
10523;SDS011;5310;48.638;9.060;2022-08-06T14:24:23;0.30;;;0.30;;
10523;SDS011;5310;48.638;9.060;2022-08-06T14:26:49;0.32;;;0.32;;
10523;SDS011;5310;48.638;9.060;2022-08-06T14:29:15;0.30;;;0.30;;
10523;SDS011;5310;48.638;9.060;2022-08-06T14:31:41;0.30;;;0.30;;
10523;SDS011;5310;48.638;9.060;2022-08-06T14:34:07;0.30;;;0.30;;
10523;SDS011;5310;48.638;9.060;2022-08-06T14:36:34;0.30;;;0.30;;
10523;SDS011;5310;48.638;9.060;2022-08-06T14:38:59;0.30;;;0.30;;
10523;SDS011;5310;48.638;9.060;2022-08-06T14:41:25;0.30;;;0.30;;
10523;SDS011;5310;48.638;9.060;2022-08-06T14:44:10;0.30;;;0.30;;
10523;SDS011;5310;48.638;9.060;2022-08-06T14:46:55;0.30;;;0.30;;
10523;SDS011;5310;48.638;9.060;2022-08-06T14:49:21;0.20;;;0.20;;
10523;SDS011;5310;48.638;9.060;2022-08-06T14:51:47;0.30;;;0.30;;
10523;SDS011;5310;48.638;9.060;2022-08-06T14:54:14;0.30;;;0.30;;
10523;SDS011;5310;48.638;9.060;2022-08-06T14:56:41;0.30;;;0.30;;
10523;SDS011;5310;48.638;9.060;2022-08-06T14:59:07;0.30;;;0.30;;
10523;SDS011;5310;48.638;9.060;2022-08-06T15:01:33;0.30;;;0.30;;
10523;SDS011;5310;48.638;9.060;2022-08-06T15:03:59;0.30;;;0.30;;
10523;SDS011;5310;48.638;9.060;2022-08-06T15:06:24;0.27;;;0.27;;
10523;SDS011;5310;48.638;9.060;2022-08-06T15:08:50;0.20;;;0.20;;
10523;SDS011;5310;48.638;9.060;2022-08-06T15:11:16;0.30;;;0.30;;
10523;SDS011;5310;48.638;9.060;2022-08-06T15:13:42;0.30;;;0.30;;
10523;SDS011;5310;48.638;9.060;2022-08-06T15:16:08;0.38;;;0.38;;
10523;SDS011;5310;48.638;9.060;2022-08-06T15:18:34;0.30;;;0.30;;
10523;SDS011;5310;48.638;9.060;2022-08-06T15:21:00;0.38;;;0.38;;
10523;SDS011;5310;48.638;9.060;2022-08-06T15:23:26;0.30;;;0.30;;
10523;SDS011;5310;48.638;9.060;2022-08-06T15:25:52;0.30;;;0.30;;
10523;SDS011;5310;48.638;9.060;2022-08-06T15:28:18;0.30;;;0.30;;
10523;SDS011;5310;48.638;9.060;2022-08-06T15:30:44;0.30;;;0.30;;
10523;SDS011;5310;48.638;9.060;2022-08-06T15:33:10;0.40;;;0.40;;
10523;SDS011;5310;48.638;9.060;2022-08-06T15:35:39;0.30;;;0.30;;
10523;SDS011;5310;48.638;9.060;2022-08-06T15:38:08;0.47;;;0.47;;
10523;SDS011;5310;48.638;9.060;2022-08-06T15:40:34;0.32;;;0.32;;
10523;SDS011;5310;48.638;9.060;2022-08-06T15:43:00;0.40;;;0.40;;
10523;SDS011;5310;48.638;9.060;2022-08-06T15:45:26;0.47;;;0.47;;
10523;SDS011;5310;48.638;9.060;2022-08-06T15:47:52;0.40;;;0.40;;
10523;SDS011;5310;48.638;9.060;2022-08-06T15:50:18;0.40;;;0.40;;
10523;SDS011;5310;48.638;9.060;2022-08-06T15:52:44;0.30;;;0.30;;
10523;SDS011;5310;48.638;9.060;2022-08-06T15:55:10;0.30;;;0.30;;
10523;SDS011;5310;48.638;9.060;2022-08-06T15:57:36;0.23;;;0.23;;
10523;SDS011;5310;48.638;9.060;2022-08-06T16:00:02;0.30;;;0.30;;
10523;SDS011;5310;48.638;9.060;2022-08-06T16:02:28;0.40;;;0.40;;
10523;SDS011;5310;48.638;9.060;2022-08-06T16:04:55;0.30;;;0.30;;
10523;SDS011;5310;48.638;9.060;2022-08-06T16:07:21;0.30;;;0.30;;
10523;SDS011;5310;48.638;9.060;2022-08-06T16:09:47;0.35;;;0.35;;
10523;SDS011;5310;48.638;9.060;2022-08-06T16:12:13;0.40;;;0.40;;
10523;SDS011;5310;48.638;9.060;2022-08-06T16:14:39;0.32;;;0.32;;
10523;SDS011;5310;48.638;9.060;2022-08-06T16:17:05;0.38;;;0.38;;
10523;SDS011;5310;48.638;9.060;2022-08-06T16:19:31;0.30;;;0.30;;
10523;SDS011;5310;48.638;9.060;2022-08-06T16:21:58;0.30;;;0.30;;
10523;SDS011;5310;48.638;9.060;2022-08-06T16:24:24;0.50;;;0.50;;
10523;SDS011;5310;48.638;9.060;2022-08-06T16:26:50;0.40;;;0.40;;
10523;SDS011;5310;48.638;9.060;2022-08-06T16:29:16;0.35;;;0.35;;
10523;SDS011;5310;48.638;9.060;2022-08-06T16:31:42;0.40;;;0.40;;
10523;SDS011;5310;48.638;9.060;2022-08-06T16:34:08;0.30;;;0.30;;
10523;SDS011;5310;48.638;9.060;2022-08-06T16:36:34;0.40;;;0.40;;
10523;SDS011;5310;48.638;9.060;2022-08-06T16:39:00;0.40;;;0.40;;
10523;SDS011;5310;48.638;9.060;2022-08-06T16:41:26;0.35;;;0.35;;
10523;SDS011;5310;48.638;9.060;2022-08-06T16:43:52;0.30;;;0.30;;
10523;SDS011;5310;48.638;9.060;2022-08-06T16:46:18;0.30;;;0.30;;
10523;SDS011;5310;48.638;9.060;2022-08-06T16:48:44;0.30;;;0.30;;
10523;SDS011;5310;48.638;9.060;2022-08-06T16:51:10;0.40;;;0.40;;
10523;SDS011;5310;48.638;9.060;2022-08-06T16:53:39;0.35;;;0.35;;
10523;SDS011;5310;48.638;9.060;2022-08-06T16:56:06;0.30;;;0.30;;
10523;SDS011;5310;48.638;9.060;2022-08-06T16:58:32;0.40;;;0.40;;
10523;SDS011;5310;48.638;9.060;2022-08-06T17:00:57;0.30;;;0.30;;
10523;SDS011;5310;48.638;9.060;2022-08-06T17:03:23;0.32;;;0.32;;
10523;SDS011;5310;48.638;9.060;2022-08-06T17:05:49;0.30;;;0.30;;
10523;SDS011;5310;48.638;9.060;2022-08-06T17:08:15;0.35;;;0.35;;
10523;SDS011;5310;48.638;9.060;2022-08-06T17:10:41;0.50;;;0.50;;
10523;SDS011;5310;48.638;9.060;2022-08-06T17:13:07;0.40;;;0.40;;
10523;SDS011;5310;48.638;9.060;2022-08-06T17:15:33;0.30;;;0.30;;
10523;SDS011;5310;48.638;9.060;2022-08-06T17:17:59;0.30;;;0.30;;
10523;SDS011;5310;48.638;9.060;2022-08-06T17:20:25;0.30;;;0.30;;
10523;SDS011;5310;48.638;9.060;2022-08-06T17:22:52;0.30;;;0.30;;
10523;SDS011;5310;48.638;9.060;2022-08-06T17:25:18;0.30;;;0.30;;
10523;SDS011;5310;48.638;9.060;2022-08-06T17:27:45;0.30;;;0.30;;
10523;SDS011;5310;48.638;9.060;2022-08-06T17:30:12;0.30;;;0.30;;
10523;SDS011;5310;48.638;9.060;2022-08-06T17:32:38;0.28;;;0.28;;
10523;SDS011;5310;48.638;9.060;2022-08-06T17:35:07;0.32;;;0.32;;
10523;SDS011;5310;48.638;9.060;2022-08-06T17:37:36;0.30;;;0.30;;
10523;SDS011;5310;48.638;9.060;2022-08-06T17:40:02;0.30;;;0.30;;
10523;SDS011;5310;48.638;9.060;2022-08-06T17:42:29;0.40;;;0.40;;
10523;SDS011;5310;48.638;9.060;2022-08-06T17:44:55;0.40;;;0.40;;
10523;SDS011;5310;48.638;9.060;2022-08-06T17:47:21;0.30;;;0.30;;
10523;SDS011;5310;48.638;9.060;2022-08-06T17:49:47;0.30;;;0.30;;
10523;SDS011;5310;48.638;9.060;2022-08-06T17:52:13;0.30;;;0.30;;
10523;SDS011;5310;48.638;9.060;2022-08-06T17:54:39;0.30;;;0.30;;
10523;SDS011;5310;48.638;9.060;2022-08-06T17:57:05;0.32;;;0.32;;
10523;SDS011;5310;48.638;9.060;2022-08-06T17:59:31;0.30;;;0.30;;
10523;SDS011;5310;48.638;9.060;2022-08-06T18:01:57;0.30;;;0.30;;
10523;SDS011;5310;48.638;9.060;2022-08-06T18:04:23;0.30;;;0.30;;
10523;SDS011;5310;48.638;9.060;2022-08-06T18:06:50;0.50;;;0.40;;
10523;SDS011;5310;48.638;9.060;2022-08-06T18:09:16;0.30;;;0.30;;
10523;SDS011;5310;48.638;9.060;2022-08-06T18:11:42;0.30;;;0.30;;
10523;SDS011;5310;48.638;9.060;2022-08-06T18:14:08;0.30;;;0.30;;
10523;SDS011;5310;48.638;9.060;2022-08-06T18:16:36;0.40;;;0.40;;
10523;SDS011;5310;48.638;9.060;2022-08-06T18:19:02;0.30;;;0.30;;
10523;SDS011;5310;48.638;9.060;2022-08-06T18:21:28;0.40;;;0.40;;
10523;SDS011;5310;48.638;9.060;2022-08-06T18:23:54;0.20;;;0.20;;
10523;SDS011;5310;48.638;9.060;2022-08-06T18:26:20;0.40;;;0.40;;
10523;SDS011;5310;48.638;9.060;2022-08-06T18:28:46;0.27;;;0.27;;
10523;SDS011;5310;48.638;9.060;2022-08-06T18:31:13;0.30;;;0.30;;
10523;SDS011;5310;48.638;9.060;2022-08-06T18:33:39;0.30;;;0.30;;
10523;SDS011;5310;48.638;9.060;2022-08-06T18:36:06;0.30;;;0.30;;
10523;SDS011;5310;48.638;9.060;2022-08-06T18:38:32;0.30;;;0.30;;
10523;SDS011;5310;48.638;9.060;2022-08-06T18:41:04;0.30;;;0.30;;
10523;SDS011;5310;48.638;9.060;2022-08-06T18:43:31;0.40;;;0.40;;
10523;SDS011;5310;48.638;9.060;2022-08-06T18:45:57;0.22;;;0.22;;
10523;SDS011;5310;48.638;9.060;2022-08-06T18:48:26;0.30;;;0.30;;
10523;SDS011;5310;48.638;9.060;2022-08-06T18:50:53;0.43;;;0.43;;
10523;SDS011;5310;48.638;9.060;2022-08-06T18:53:19;0.38;;;0.38;;
10523;SDS011;5310;48.638;9.060;2022-08-06T18:55:45;0.40;;;0.40;;
10523;SDS011;5310;48.638;9.060;2022-08-06T18:58:11;0.30;;;0.30;;
10523;SDS011;5310;48.638;9.060;2022-08-06T19:00:37;0.30;;;0.30;;
10523;SDS011;5310;48.638;9.060;2022-08-06T19:03:05;0.37;;;0.37;;
10523;SDS011;5310;48.638;9.060;2022-08-06T19:05:31;0.30;;;0.30;;
10523;SDS011;5310;48.638;9.060;2022-08-06T19:07:57;0.20;;;0.20;;
10523;SDS011;5310;48.638;9.060;2022-08-06T19:10:23;0.30;;;0.30;;
10523;SDS011;5310;48.638;9.060;2022-08-06T19:12:50;0.22;;;0.22;;
10523;SDS011;5310;48.638;9.060;2022-08-06T19:15:17;0.28;;;0.28;;
10523;SDS011;5310;48.638;9.060;2022-08-06T19:17:42;0.22;;;0.22;;
10523;SDS011;5310;48.638;9.060;2022-08-06T19:20:09;0.30;;;0.30;;
10523;SDS011;5310;48.638;9.060;2022-08-06T19:22:36;0.30;;;0.30;;
10523;SDS011;5310;48.638;9.060;2022-08-06T19:25:02;0.30;;;0.30;;
10523;SDS011;5310;48.638;9.060;2022-08-06T19:27:28;0.30;;;0.30;;
10523;SDS011;5310;48.638;9.060;2022-08-06T19:29:54;0.20;;;0.20;;
10523;SDS011;5310;48.638;9.060;2022-08-06T19:32:20;0.30;;;0.30;;
10523;SDS011;5310;48.638;9.060;2022-08-06T19:34:46;0.30;;;0.30;;
10523;SDS011;5310;48.638;9.060;2022-08-06T19:37:13;0.22;;;0.22;;
10523;SDS011;5310;48.638;9.060;2022-08-06T19:39:39;0.20;;;0.20;;
10523;SDS011;5310;48.638;9.060;2022-08-06T19:42:05;0.20;;;0.20;;
10523;SDS011;5310;48.638;9.060;2022-08-06T19:44:35;0.20;;;0.20;;
10523;SDS011;5310;48.638;9.060;2022-08-06T19:47:02;0.30;;;0.30;;
10523;SDS011;5310;48.638;9.060;2022-08-06T19:49:28;0.30;;;0.30;;
10523;SDS011;5310;48.638;9.060;2022-08-06T19:51:54;0.20;;;0.20;;
10523;SDS011;5310;48.638;9.060;2022-08-06T19:54:20;0.20;;;0.20;;
10523;SDS011;5310;48.638;9.060;2022-08-06T19:56:46;0.30;;;0.30;;
10523;SDS011;5310;48.638;9.060;2022-08-06T19:59:12;0.23;;;0.23;;
10523;SDS011;5310;48.638;9.060;2022-08-06T20:01:38;0.25;;;0.25;;
10523;SDS011;5310;48.638;9.060;2022-08-06T20:04:04;0.20;;;0.20;;
10523;SDS011;5310;48.638;9.060;2022-08-06T20:06:31;0.20;;;0.20;;
10523;SDS011;5310;48.638;9.060;2022-08-06T20:08:56;0.30;;;0.30;;
10523;SDS011;5310;48.638;9.060;2022-08-06T20:11:22;0.30;;;0.30;;
10523;SDS011;5310;48.638;9.060;2022-08-06T20:13:50;0.20;;;0.20;;
10523;SDS011;5310;48.638;9.060;2022-08-06T20:16:16;0.20;;;0.20;;
10523;SDS011;5310;48.638;9.060;2022-08-06T20:18:42;0.20;;;0.20;;
10523;SDS011;5310;48.638;9.060;2022-08-06T20:21:08;0.22;;;0.22;;
10523;SDS011;5310;48.638;9.060;2022-08-06T20:23:34;0.30;;;0.30;;
10523;SDS011;5310;48.638;9.060;2022-08-06T20:26:00;0.33;;;0.33;;
10523;SDS011;5310;48.638;9.060;2022-08-06T20:28:27;0.30;;;0.30;;
10523;SDS011;5310;48.638;9.060;2022-08-06T20:30:53;0.28;;;0.28;;
10523;SDS011;5310;48.638;9.060;2022-08-06T20:33:19;0.30;;;0.30;;
10523;SDS011;5310;48.638;9.060;2022-08-06T20:35:45;0.27;;;0.27;;
10523;SDS011;5310;48.638;9.060;2022-08-06T20:38:12;0.30;;;0.30;;
10523;SDS011;5310;48.638;9.060;2022-08-06T20:40:37;0.30;;;0.30;;
10523;SDS011;5310;48.638;9.060;2022-08-06T20:43:07;0.25;;;0.25;;
10523;SDS011;5310;48.638;9.060;2022-08-06T20:45:37;0.30;;;0.30;;
10523;SDS011;5310;48.638;9.060;2022-08-06T20:48:04;0.30;;;0.30;;
10523;SDS011;5310;48.638;9.060;2022-08-06T20:50:30;0.30;;;0.30;;
10523;SDS011;5310;48.638;9.060;2022-08-06T20:52:56;0.20;;;0.20;;
10523;SDS011;5310;48.638;9.060;2022-08-06T20:55:22;0.30;;;0.30;;
10523;SDS011;5310;48.638;9.060;2022-08-06T20:57:48;0.30;;;0.30;;
10523;SDS011;5310;48.638;9.060;2022-08-06T21:00:15;0.30;;;0.30;;
10523;SDS011;5310;48.638;9.060;2022-08-06T21:02:42;0.40;;;0.40;;
10523;SDS011;5310;48.638;9.060;2022-08-06T21:05:08;0.30;;;0.30;;
10523;SDS011;5310;48.638;9.060;2022-08-06T21:07:35;0.30;;;0.30;;
10523;SDS011;5310;48.638;9.060;2022-08-06T21:10:02;0.30;;;0.30;;
10523;SDS011;5310;48.638;9.060;2022-08-06T21:12:28;0.30;;;0.30;;
10523;SDS011;5310;48.638;9.060;2022-08-06T21:14:54;0.20;;;0.20;;
10523;SDS011;5310;48.638;9.060;2022-08-06T21:17:20;0.28;;;0.28;;
10523;SDS011;5310;48.638;9.060;2022-08-06T21:19:46;0.30;;;0.30;;
10523;SDS011;5310;48.638;9.060;2022-08-06T21:22:12;0.30;;;0.30;;
10523;SDS011;5310;48.638;9.060;2022-08-06T21:24:38;0.40;;;0.40;;
10523;SDS011;5310;48.638;9.060;2022-08-06T21:27:04;0.38;;;0.38;;
10523;SDS011;5310;48.638;9.060;2022-08-06T21:29:30;0.20;;;0.20;;
10523;SDS011;5310;48.638;9.060;2022-08-06T21:31:56;0.30;;;0.30;;
10523;SDS011;5310;48.638;9.060;2022-08-06T21:34:22;0.30;;;0.30;;
10523;SDS011;5310;48.638;9.060;2022-08-06T21:36:48;0.30;;;0.30;;
10523;SDS011;5310;48.638;9.060;2022-08-06T21:39:14;0.30;;;0.30;;
10523;SDS011;5310;48.638;9.060;2022-08-06T21:41:40;0.30;;;0.30;;
10523;SDS011;5310;48.638;9.060;2022-08-06T21:44:07;0.30;;;0.30;;
10523;SDS011;5310;48.638;9.060;2022-08-06T21:46:33;0.28;;;0.28;;
10523;SDS011;5310;48.638;9.060;2022-08-06T21:48:59;0.40;;;0.40;;
10523;SDS011;5310;48.638;9.060;2022-08-06T21:51:25;0.20;;;0.20;;
10523;SDS011;5310;48.638;9.060;2022-08-06T21:53:52;0.30;;;0.30;;
10523;SDS011;5310;48.638;9.060;2022-08-06T21:56:18;0.30;;;0.30;;
10523;SDS011;5310;48.638;9.060;2022-08-06T21:58:45;0.35;;;0.35;;
10523;SDS011;5310;48.638;9.060;2022-08-06T22:01:11;0.28;;;0.28;;
10523;SDS011;5310;48.638;9.060;2022-08-06T22:03:38;0.32;;;0.32;;
10523;SDS011;5310;48.638;9.060;2022-08-06T22:06:04;0.20;;;0.20;;
10523;SDS011;5310;48.638;9.060;2022-08-06T22:08:30;0.30;;;0.30;;
10523;SDS011;5310;48.638;9.060;2022-08-06T22:10:57;0.30;;;0.30;;
10523;SDS011;5310;48.638;9.060;2022-08-06T22:13:23;0.40;;;0.40;;
10523;SDS011;5310;48.638;9.060;2022-08-06T22:15:49;0.30;;;0.30;;
10523;SDS011;5310;48.638;9.060;2022-08-06T22:18:15;0.30;;;0.30;;
10523;SDS011;5310;48.638;9.060;2022-08-06T22:20:41;0.40;;;0.40;;
10523;SDS011;5310;48.638;9.060;2022-08-06T22:23:07;0.30;;;0.30;;
10523;SDS011;5310;48.638;9.060;2022-08-06T22:25:33;0.38;;;0.38;;
10523;SDS011;5310;48.638;9.060;2022-08-06T22:27:59;0.30;;;0.30;;
10523;SDS011;5310;48.638;9.060;2022-08-06T22:30:25;0.30;;;0.30;;
10523;SDS011;5310;48.638;9.060;2022-08-06T22:33:01;0.30;;;0.30;;
10523;SDS011;5310;48.638;9.060;2022-08-06T22:35:30;0.30;;;0.30;;
10523;SDS011;5310;48.638;9.060;2022-08-06T22:37:57;0.30;;;0.30;;
10523;SDS011;5310;48.638;9.060;2022-08-06T22:40:28;0.30;;;0.30;;
10523;SDS011;5310;48.638;9.060;2022-08-06T22:42:54;0.30;;;0.30;;
10523;SDS011;5310;48.638;9.060;2022-08-06T22:45:20;0.30;;;0.30;;
10523;SDS011;5310;48.638;9.060;2022-08-06T22:47:46;0.30;;;0.30;;
10523;SDS011;5310;48.638;9.060;2022-08-06T22:50:13;0.40;;;0.40;;
10523;SDS011;5310;48.638;9.060;2022-08-06T22:52:39;0.40;;;0.40;;
10523;SDS011;5310;48.638;9.060;2022-08-06T22:55:05;0.40;;;0.40;;
10523;SDS011;5310;48.638;9.060;2022-08-06T22:57:31;0.47;;;0.47;;
10523;SDS011;5310;48.638;9.060;2022-08-06T22:59:57;0.40;;;0.40;;
10523;SDS011;5310;48.638;9.060;2022-08-06T23:24:16;0.50;;;0.50;;
10523;SDS011;5310;48.638;9.060;2022-08-06T23:26:42;0.70;;;0.70;;
10523;SDS011;5310;48.638;9.060;2022-08-06T23:29:08;0.60;;;0.60;;
10523;SDS011;5310;48.638;9.060;2022-08-06T23:31:34;0.60;;;0.60;;
10523;SDS011;5310;48.638;9.060;2022-08-06T23:34:01;0.60;;;0.60;;
10523;SDS011;5310;48.638;9.060;2022-08-06T23:36:27;0.50;;;0.50;;
10523;SDS011;5310;48.638;9.060;2022-08-06T23:38:54;0.53;;;0.53;;
10523;SDS011;5310;48.638;9.060;2022-08-06T23:41:20;0.50;;;0.50;;
10523;SDS011;5310;48.638;9.060;2022-08-06T23:43:46;0.50;;;0.50;;
10523;SDS011;5310;48.638;9.060;2022-08-06T23:46:12;0.50;;;0.50;;
10523;SDS011;5310;48.638;9.060;2022-08-06T23:48:38;0.70;;;0.70;;
10523;SDS011;5310;48.638;9.060;2022-08-06T23:51:04;0.60;;;0.60;;
10523;SDS011;5310;48.638;9.060;2022-08-06T23:53:32;0.60;;;0.60;;
10523;SDS011;5310;48.638;9.060;2022-08-06T23:55:58;0.70;;;0.70;;
10523;SDS011;5310;48.638;9.060;2022-08-06T23:58:24;0.50;;;0.50;;
